createdAt,value
2017-04-03T00:00:25.159Z,0
2017-04-03T00:01:05.809Z,0
2017-04-03T00:01:46.473Z,0
2017-04-03T00:02:27.055Z,0
2017-04-03T00:03:07.806Z,0
2017-04-03T00:03:48.424Z,0
2017-04-03T00:04:28.994Z,0
2017-04-03T00:05:09.628Z,0
2017-04-03T00:05:50.279Z,0
2017-04-03T00:06:30.853Z,0
2017-04-03T00:07:11.478Z,0
2017-04-03T00:07:52.128Z,0
2017-04-03T00:08:32.685Z,0
2017-04-03T00:09:13.410Z,0
2017-04-03T00:09:54.095Z,0
2017-04-03T00:10:34.740Z,0
2017-04-03T00:11:15.291Z,0
2017-04-03T00:11:56.008Z,0
2017-04-03T00:12:36.614Z,0
2017-04-03T00:13:17.330Z,0
2017-04-03T00:13:57.960Z,0
2017-04-03T00:14:38.631Z,0
2017-04-03T00:15:19.280Z,0
2017-04-03T00:15:59.941Z,0
2017-04-03T00:16:40.588Z,0
2017-04-03T00:17:22.263Z,0
2017-04-03T00:18:02.918Z,0
2017-04-03T00:18:43.573Z,0
2017-04-03T00:19:24.230Z,0
2017-04-03T00:20:04.884Z,0
2017-04-03T00:20:45.539Z,0
2017-04-03T00:21:26.179Z,0
2017-04-03T00:22:07.865Z,0
2017-04-03T00:22:48.540Z,0
2017-04-03T00:23:29.195Z,0
2017-04-03T00:24:09.775Z,0
2017-04-03T00:24:50.464Z,0
2017-04-03T00:25:31.188Z,0
2017-04-03T00:26:11.808Z,0
2017-04-03T00:26:52.413Z,0
2017-04-03T00:27:33.090Z,0
2017-04-03T00:28:13.783Z,0
2017-04-03T00:28:54.421Z,0
2017-04-03T00:29:34.977Z,0
2017-04-03T00:30:15.998Z,0
2017-04-03T00:30:56.691Z,0
2017-04-03T00:31:38.396Z,0
2017-04-03T00:32:18.970Z,0
2017-04-03T00:32:59.639Z,0
2017-04-03T00:33:40.319Z,0
2017-04-03T00:34:20.981Z,0
2017-04-03T00:35:01.551Z,0
2017-04-03T00:35:42.264Z,0
2017-04-03T00:36:22.939Z,0
2017-04-03T00:37:03.595Z,0
2017-04-03T00:37:44.246Z,0
2017-04-03T00:38:24.925Z,0
2017-04-03T00:39:05.653Z,0
2017-04-03T00:39:46.308Z,0
2017-04-03T00:40:26.975Z,0
2017-04-03T00:41:07.734Z,0
2017-04-03T00:41:48.305Z,0
2017-04-03T00:42:29.037Z,0
2017-04-03T00:43:09.791Z,0
2017-04-03T00:43:50.361Z,0
2017-04-03T00:44:30.976Z,0
2017-04-03T00:45:11.635Z,0
2017-04-03T00:45:53.014Z,0
2017-04-03T00:46:33.644Z,0
2017-04-03T00:47:14.326Z,0
2017-04-03T00:47:54.968Z,0
2017-04-03T00:48:35.620Z,0
2017-04-03T00:49:16.280Z,0
2017-04-03T00:49:56.948Z,0
2017-04-03T00:50:37.572Z,0
2017-04-03T00:51:18.232Z,0
2017-04-03T00:51:58.802Z,0
2017-04-03T00:52:39.553Z,0
2017-04-03T00:53:20.173Z,0
2017-04-03T00:54:00.847Z,0
2017-04-03T00:54:41.413Z,0
2017-04-03T00:55:22.118Z,0
2017-04-03T00:56:02.819Z,0
2017-04-03T00:56:43.460Z,0
2017-04-03T00:57:24.034Z,0
2017-04-03T00:58:04.754Z,0
2017-04-03T00:58:45.411Z,0
2017-04-03T00:59:25.976Z,0
2017-04-03T01:00:06.610Z,0
2017-04-03T01:00:47.285Z,0
2017-04-03T01:01:27.844Z,0
2017-04-03T01:02:08.557Z,0
2017-04-03T01:02:49.236Z,0
2017-04-03T01:03:29.815Z,0
2017-04-03T01:04:10.517Z,0
2017-04-03T01:04:51.195Z,0
2017-04-03T01:05:31.748Z,0
2017-04-03T01:06:12.399Z,0
2017-04-03T01:06:53.052Z,0
2017-04-03T01:07:33.792Z,0
2017-04-03T01:08:14.353Z,0
2017-04-03T01:08:55.006Z,0
2017-04-03T01:09:35.650Z,0
2017-04-03T01:10:16.319Z,0
2017-04-03T01:10:57.071Z,0
2017-04-03T01:11:37.714Z,0
2017-04-03T01:12:18.288Z,0
2017-04-03T01:12:59.013Z,0
2017-04-03T01:13:39.783Z,0
2017-04-03T01:14:21.178Z,0
2017-04-03T01:15:01.916Z,0
2017-04-03T01:15:42.562Z,0
2017-04-03T01:16:23.129Z,0
2017-04-03T01:17:03.871Z,0
2017-04-03T01:17:44.624Z,0
2017-04-03T01:18:25.382Z,0
2017-04-03T01:19:06.132Z,0
2017-04-03T01:19:46.891Z,0
2017-04-03T01:20:27.539Z,0
2017-04-03T01:21:08.299Z,0
2017-04-03T01:21:48.862Z,0
2017-04-03T01:22:29.554Z,0
2017-04-03T01:23:10.285Z,0
2017-04-03T01:23:51.011Z,0
2017-04-03T01:24:31.598Z,0
2017-04-03T01:25:12.282Z,0
2017-04-03T01:25:52.952Z,0
2017-04-03T01:26:33.627Z,0
2017-04-03T01:27:14.191Z,0
2017-04-03T01:27:54.892Z,0
2017-04-03T01:28:35.651Z,0
2017-04-03T01:29:16.404Z,0
2017-04-03T01:29:57.161Z,0
2017-04-03T01:30:37.897Z,0
2017-04-03T01:31:18.570Z,0
2017-04-03T01:31:59.305Z,0
2017-04-03T01:32:39.971Z,0
2017-04-03T01:33:20.619Z,0
2017-04-03T01:34:01.363Z,0
2017-04-03T01:34:42.028Z,0
2017-04-03T01:35:22.679Z,0
2017-04-03T01:36:03.434Z,0
2017-04-03T01:36:44.098Z,0
2017-04-03T01:37:24.846Z,0
2017-04-03T01:38:05.552Z,0
2017-04-03T01:38:46.112Z,0
2017-04-03T01:39:26.850Z,0
2017-04-03T01:40:07.608Z,0
2017-04-03T01:40:48.201Z,0
2017-04-03T01:41:28.905Z,0
2017-04-03T01:42:09.559Z,0
2017-04-03T01:42:50.211Z,0
2017-04-03T01:43:30.864Z,0
2017-04-03T01:44:11.515Z,0
2017-04-03T01:44:52.275Z,0
2017-04-03T01:45:32.924Z,0
2017-04-03T01:46:13.684Z,0
2017-04-03T01:46:54.439Z,0
2017-04-03T01:47:35.018Z,0
2017-04-03T01:48:15.738Z,0
2017-04-03T01:48:56.394Z,0
2017-04-03T01:49:36.942Z,0
2017-04-03T01:50:17.599Z,0
2017-04-03T01:50:58.246Z,0
2017-04-03T01:51:38.823Z,0
2017-04-03T01:52:19.555Z,0
2017-04-03T01:53:00.335Z,0
2017-04-03T01:53:41.073Z,0
2017-04-03T01:54:21.822Z,0
2017-04-03T01:55:02.579Z,0
2017-04-03T01:55:43.341Z,0
2017-04-03T01:56:23.984Z,0
2017-04-03T01:57:04.739Z,0
2017-04-03T01:57:45.393Z,0
2017-04-03T01:58:25.998Z,0
2017-04-03T01:59:06.673Z,0
2017-04-03T01:59:47.356Z,0
2017-04-03T02:00:28.005Z,0
2017-04-03T02:01:08.612Z,0
2017-04-03T02:01:49.273Z,0
2017-04-03T02:02:29.964Z,0
2017-04-03T02:03:10.554Z,0
2017-04-03T02:03:51.280Z,0
2017-04-03T02:04:32.029Z,0
2017-04-03T02:05:12.615Z,0
2017-04-03T02:05:53.343Z,0
2017-04-03T02:06:34.088Z,0
2017-04-03T02:07:14.680Z,0
2017-04-03T02:07:55.394Z,0
2017-04-03T02:08:36.063Z,0
2017-04-03T02:09:16.811Z,0
2017-04-03T02:09:57.567Z,0
2017-04-03T02:10:38.310Z,0
2017-04-03T02:11:19.000Z,0
2017-04-03T02:11:59.728Z,0
2017-04-03T02:12:40.487Z,0
2017-04-03T02:13:21.059Z,0
2017-04-03T02:14:01.755Z,0
2017-04-03T02:14:42.441Z,0
2017-04-03T02:15:23.199Z,0
2017-04-03T02:16:03.768Z,0
2017-04-03T02:16:44.468Z,0
2017-04-03T02:17:25.153Z,0
2017-04-03T02:18:05.811Z,0
2017-04-03T02:18:46.577Z,0
2017-04-03T02:19:27.322Z,0
2017-04-03T02:20:08.079Z,0
2017-04-03T02:20:48.835Z,0
2017-04-03T02:21:29.591Z,0
2017-04-03T02:22:10.348Z,0
2017-04-03T02:22:51.921Z,0
2017-04-03T02:23:32.493Z,0
2017-04-03T02:24:13.175Z,0
2017-04-03T02:24:53.875Z,0
2017-04-03T02:25:34.625Z,0
2017-04-03T02:26:15.198Z,0
2017-04-03T02:26:55.893Z,0
2017-04-03T02:27:36.590Z,0
2017-04-03T02:28:17.175Z,0
2017-04-03T02:28:57.919Z,0
2017-04-03T02:29:39.676Z,0
2017-04-03T02:30:20.256Z,0
2017-04-03T02:31:00.982Z,0
2017-04-03T02:31:41.733Z,0
2017-04-03T02:32:22.299Z,0
2017-04-03T02:33:03.054Z,0
2017-04-03T02:33:43.797Z,0
2017-04-03T02:34:24.559Z,0
2017-04-03T02:35:05.308Z,0
2017-04-03T02:35:46.061Z,0
2017-04-03T02:36:26.821Z,0
2017-04-03T02:37:07.392Z,0
2017-04-03T02:37:48.075Z,0
2017-04-03T02:38:28.776Z,0
2017-04-03T02:39:09.563Z,0
2017-04-03T02:39:50.152Z,0
2017-04-03T02:40:33.561Z,0
2017-04-03T02:41:14.171Z,0
2017-04-03T02:41:55.857Z,0
2017-04-03T02:42:42.140Z,0
2017-04-03T02:43:23.814Z,0
2017-04-03T02:44:04.480Z,0
2017-04-03T02:44:47.064Z,0
2017-04-03T02:45:28.735Z,0
2017-04-03T02:46:09.398Z,0
2017-04-03T02:46:51.072Z,0
2017-04-03T02:47:31.634Z,0
2017-04-03T02:48:12.243Z,0
2017-04-03T02:48:52.834Z,0
2017-04-03T02:49:34.504Z,0
2017-04-03T02:50:15.067Z,0
2017-04-03T02:50:55.655Z,0
2017-04-03T02:51:36.270Z,0
2017-04-03T02:52:17.932Z,0
2017-04-03T02:53:00.531Z,0
2017-04-03T02:53:41.182Z,0
2017-04-03T02:54:22.863Z,0
2017-04-03T02:55:04.538Z,0
2017-04-03T02:55:45.194Z,0
2017-04-03T02:56:26.868Z,0
2017-04-03T02:57:07.525Z,0
2017-04-03T02:57:48.176Z,0
2017-04-03T02:58:30.781Z,0
2017-04-03T02:59:13.476Z,0
2017-04-03T02:59:54.124Z,0
2017-04-03T03:00:34.778Z,0
2017-04-03T03:01:26.081Z,0
2017-04-03T03:02:11.649Z,0
2017-04-03T03:02:52.305Z,0
2017-04-03T03:03:33.966Z,0
2017-04-03T03:04:14.621Z,0
2017-04-03T03:04:56.294Z,0
2017-04-03T03:05:36.958Z,0
2017-04-03T03:06:22.117Z,0
2017-04-03T03:07:02.772Z,0
2017-04-03T03:07:43.334Z,0
2017-04-03T03:08:23.916Z,0
2017-04-03T03:09:05.540Z,0
2017-04-03T03:09:46.363Z,0
2017-04-03T03:10:26.887Z,0
2017-04-03T03:11:08.477Z,0
2017-04-03T03:11:51.137Z,0
2017-04-03T03:12:32.808Z,0
2017-04-03T03:13:13.380Z,0
2017-04-03T03:13:54.014Z,0
2017-04-03T03:14:35.686Z,0
2017-04-03T03:15:16.261Z,0
2017-04-03T03:15:56.904Z,0
2017-04-03T03:16:37.538Z,0
2017-04-03T03:17:18.121Z,0
2017-04-03T03:17:58.759Z,0
2017-04-03T03:18:39.398Z,0
2017-04-03T03:19:20.056Z,0
2017-04-03T03:20:00.704Z,0
2017-04-03T03:20:42.389Z,0
2017-04-03T03:21:24.056Z,0
2017-04-03T03:22:06.653Z,0
2017-04-03T03:22:47.308Z,0
2017-04-03T03:23:27.962Z,0
2017-04-03T03:24:10.551Z,0
2017-04-03T03:24:52.247Z,0
2017-04-03T03:25:34.824Z,0
2017-04-03T03:26:15.482Z,0
2017-04-03T03:26:58.086Z,0
2017-04-03T03:27:38.723Z,0
2017-04-03T03:28:19.403Z,0
2017-04-03T03:29:00.036Z,0
2017-04-03T03:29:40.621Z,0
2017-04-03T03:30:23.309Z,0
2017-04-03T03:31:10.608Z,0
2017-04-03T03:31:51.194Z,0
2017-04-03T03:32:31.827Z,0
2017-04-03T03:33:12.473Z,0
2017-04-03T03:33:58.958Z,0
2017-04-03T03:34:40.643Z,0
2017-04-03T03:35:21.298Z,0
2017-04-03T03:36:03.988Z,0
2017-04-03T03:36:45.668Z,0
2017-04-03T03:37:26.318Z,0
2017-04-03T03:38:06.969Z,0
2017-04-03T03:38:47.527Z,0
2017-04-03T03:39:28.114Z,0
2017-04-03T03:40:08.734Z,0
2017-04-03T03:40:50.397Z,0
2017-04-03T03:41:30.975Z,0
2017-04-03T03:42:13.600Z,0
2017-04-03T03:42:55.225Z,0
2017-04-03T03:43:35.880Z,0
2017-04-03T03:44:17.565Z,0
2017-04-03T03:44:58.208Z,0
2017-04-03T03:45:38.879Z,0
2017-04-03T03:46:20.524Z,0
2017-04-03T03:47:01.189Z,0
2017-04-03T03:47:41.880Z,0
2017-04-03T03:48:24.533Z,0
2017-04-03T03:49:05.200Z,0
2017-04-03T03:49:45.824Z,0
2017-04-03T03:50:28.454Z,0
2017-04-03T03:51:10.126Z,0
2017-04-03T03:51:52.829Z,0
2017-04-03T03:52:34.509Z,0
2017-04-03T03:53:16.177Z,0
2017-04-03T03:53:56.838Z,0
2017-04-03T03:54:37.479Z,0
2017-04-03T03:55:24.687Z,0
2017-04-03T03:56:05.340Z,0
2017-04-03T03:56:47.939Z,0
2017-04-03T03:57:28.588Z,0
2017-04-03T03:58:09.246Z,0
2017-04-03T03:58:54.608Z,0
2017-04-03T03:59:35.257Z,0
2017-04-03T04:00:15.912Z,0
2017-04-03T04:00:58.510Z,0
2017-04-03T04:01:39.169Z,0
2017-04-03T04:02:19.820Z,0
2017-04-03T04:03:00.398Z,0
2017-04-03T04:03:41.026Z,0
2017-04-03T04:04:21.673Z,0
2017-04-03T04:05:02.261Z,0
2017-04-03T04:05:43.893Z,0
2017-04-03T04:06:31.207Z,0
2017-04-03T04:07:11.790Z,0
2017-04-03T04:07:52.409Z,0
2017-04-03T04:08:33.156Z,0
2017-04-03T04:09:18.536Z,0
2017-04-03T04:09:59.190Z,0
2017-04-03T04:10:39.840Z,0
2017-04-03T04:11:20.494Z,0
2017-04-03T04:12:02.188Z,0
2017-04-03T04:12:42.821Z,0
2017-04-03T04:13:24.488Z,0
2017-04-03T04:14:05.142Z,0
2017-04-03T04:14:46.824Z,0
2017-04-03T04:15:28.504Z,0
2017-04-03T04:16:09.154Z,0
2017-04-03T04:16:49.807Z,0
2017-04-03T04:17:30.455Z,0
2017-04-03T04:18:11.109Z,0
2017-04-03T04:18:51.755Z,0
2017-04-03T04:19:32.424Z,0
2017-04-03T04:20:13.064Z,0
2017-04-03T04:20:54.741Z,0
2017-04-03T04:21:36.425Z,0
2017-04-03T04:22:17.017Z,0
2017-04-03T04:22:58.587Z,0
2017-04-03T04:23:39.208Z,0
2017-04-03T04:24:19.782Z,0
2017-04-03T04:25:06.462Z,0
2017-04-03T04:25:47.102Z,0
2017-04-03T04:26:27.680Z,0
2017-04-03T04:27:13.942Z,0
2017-04-03T04:27:55.604Z,0
2017-04-03T04:28:36.186Z,0
2017-04-03T04:29:16.815Z,0
2017-04-03T04:29:58.485Z,0
2017-04-03T04:30:39.070Z,0
2017-04-03T04:31:20.733Z,0
2017-04-03T04:32:01.373Z,0
2017-04-03T04:32:41.942Z,0
2017-04-03T04:33:23.612Z,0
2017-04-03T04:34:04.253Z,0
2017-04-03T04:34:44.919Z,0
2017-04-03T04:35:25.554Z,0
2017-04-03T04:36:06.203Z,0
2017-04-03T04:36:47.915Z,0
2017-04-03T04:37:29.576Z,0
2017-04-03T04:38:10.237Z,0
2017-04-03T04:38:50.840Z,0
2017-04-03T04:39:31.537Z,4
2017-04-03T04:40:12.174Z,4
2017-04-03T04:40:52.749Z,4
2017-04-03T04:41:38.918Z,4
2017-04-03T04:42:20.584Z,4
2017-04-03T04:43:01.187Z,0
2017-04-03T04:43:42.890Z,4
2017-04-03T04:44:25.536Z,4
2017-04-03T04:45:07.187Z,4
2017-04-03T04:45:47.769Z,4
2017-04-03T04:46:29.466Z,4
2017-04-03T04:47:11.105Z,8
2017-04-03T04:47:51.750Z,4
2017-04-03T04:48:32.321Z,4
2017-04-03T04:49:17.608Z,8
2017-04-03T04:49:58.211Z,8
2017-04-03T04:50:38.871Z,4
2017-04-03T04:51:19.456Z,8
2017-04-03T04:52:01.148Z,8
2017-04-03T04:52:41.759Z,8
2017-04-03T04:53:22.406Z,8
2017-04-03T04:54:02.987Z,12
2017-04-03T04:54:43.618Z,12
2017-04-03T04:55:25.272Z,12
2017-04-03T04:56:05.856Z,12
2017-04-03T04:56:46.489Z,16
2017-04-03T04:57:27.127Z,16
2017-04-03T04:58:07.714Z,20
2017-04-03T04:58:48.325Z,16
2017-04-03T04:59:28.983Z,20
2017-04-03T05:00:09.557Z,20
2017-04-03T05:00:51.243Z,24
2017-04-03T05:01:33.912Z,24
2017-04-03T05:02:14.504Z,24
2017-04-03T05:02:55.129Z,32
2017-04-03T05:03:35.771Z,32
2017-04-03T05:04:16.430Z,36
2017-04-03T05:04:57.072Z,40
2017-04-03T05:05:37.726Z,40
2017-04-03T05:06:22.891Z,40
2017-04-03T05:07:10.431Z,44
2017-04-03T05:07:51.056Z,44
2017-04-03T05:08:31.702Z,44
2017-04-03T05:09:12.355Z,48
2017-04-03T05:09:53.009Z,48
2017-04-03T05:10:33.674Z,52
2017-04-03T05:11:14.311Z,56
2017-04-03T05:11:54.968Z,60
2017-04-03T05:12:35.536Z,60
2017-04-03T05:13:16.122Z,64
2017-04-03T05:13:56.720Z,64
2017-04-03T05:14:37.371Z,68
2017-04-03T05:15:17.960Z,68
2017-04-03T05:15:58.540Z,72
2017-04-03T05:16:39.142Z,80
2017-04-03T05:17:19.789Z,80
2017-04-03T05:18:00.366Z,84
2017-04-03T05:18:40.986Z,88
2017-04-03T05:19:21.641Z,96
2017-04-03T05:20:02.212Z,100
2017-04-03T05:20:43.879Z,108
2017-04-03T05:21:25.538Z,112
2017-04-03T05:22:06.214Z,116
2017-04-03T05:22:46.856Z,120
2017-04-03T05:23:27.497Z,120
2017-04-03T05:24:08.175Z,128
2017-04-03T05:24:48.802Z,136
2017-04-03T05:25:29.459Z,140
2017-04-03T05:26:10.119Z,140
2017-04-03T05:26:50.772Z,140
2017-04-03T05:27:31.427Z,140
2017-04-03T05:28:12.078Z,140
2017-04-03T05:28:52.747Z,140
2017-04-03T05:29:33.387Z,144
2017-04-03T05:30:18.952Z,140
2017-04-03T05:30:59.625Z,144
2017-04-03T05:31:50.912Z,148
2017-04-03T05:32:43.447Z,152
2017-04-03T05:33:24.101Z,164
2017-04-03T05:34:04.666Z,180
2017-04-03T05:35:01.034Z,196
2017-04-03T05:35:42.641Z,212
2017-04-03T05:36:28.203Z,224
2017-04-03T05:37:08.780Z,236
2017-04-03T05:42:38.329Z,248
2017-04-03T05:43:18.930Z,256
2017-04-03T05:43:59.497Z,260
2017-04-03T05:44:40.132Z,276
2017-04-03T05:45:20.779Z,292
2017-04-03T05:46:01.388Z,296
2017-04-03T05:46:46.791Z,292
2017-04-03T05:47:34.112Z,296
2017-04-03T05:48:19.581Z,304
2017-04-03T05:49:00.230Z,308
2017-04-03T05:49:40.882Z,316
2017-04-03T05:50:21.578Z,328
2017-04-03T05:51:02.189Z,328
2017-04-03T05:51:43.859Z,336
2017-04-03T05:52:24.520Z,332
2017-04-03T05:53:07.121Z,336
2017-04-03T05:53:49.709Z,340
2017-04-03T05:54:30.367Z,348
2017-04-03T05:55:11.027Z,356
2017-04-03T05:55:57.612Z,372
2017-04-03T05:56:38.255Z,376
2017-04-03T05:57:18.911Z,372
2017-04-03T05:57:59.591Z,372
2017-04-03T05:58:52.128Z,380
2017-04-03T05:59:32.775Z,380
2017-04-03T06:00:13.397Z,372
2017-04-03T06:00:55.095Z,372
2017-04-03T06:01:35.729Z,368
2017-04-03T06:02:16.387Z,376
2017-04-03T06:02:57.054Z,380
2017-04-03T06:03:37.687Z,384
2017-04-03T06:04:19.368Z,384
2017-04-03T06:05:02.091Z,388
2017-04-03T06:05:47.513Z,392
2017-04-03T06:06:28.095Z,396
2017-04-03T06:07:10.692Z,396
2017-04-03T06:07:51.264Z,400
2017-04-03T06:08:31.857Z,396
2017-04-03T06:09:12.509Z,400
2017-04-03T06:09:54.228Z,400
2017-04-03T06:10:35.864Z,412
2017-04-03T06:11:16.525Z,416
2017-04-03T06:11:58.093Z,420
2017-04-03T06:12:39.683Z,424
2017-04-03T06:13:24.985Z,424
2017-04-03T06:14:05.632Z,420
2017-04-03T06:14:46.284Z,424
2017-04-03T06:15:26.931Z,432
2017-04-03T06:17:27.391Z,444
2017-04-03T06:18:08.021Z,452
2017-04-03T06:18:48.657Z,456
2017-04-03T06:19:34.236Z,460
2017-04-03T06:20:14.886Z,468
2017-04-03T06:20:55.549Z,480
2017-04-03T06:21:36.198Z,496
2017-04-03T06:22:17.879Z,508
2017-04-03T06:22:58.441Z,528
2017-04-03T06:23:40.034Z,544
2017-04-03T06:24:20.734Z,560
2017-04-03T06:25:01.428Z,572
2017-04-03T06:25:42.017Z,592
2017-04-03T06:26:22.664Z,604
2017-04-03T06:27:04.298Z,624
2017-04-03T06:27:44.983Z,640
2017-04-03T06:28:25.536Z,648
2017-04-03T06:29:06.195Z,664
2017-04-03T06:29:46.787Z,688
2017-04-03T06:30:27.473Z,712
2017-04-03T06:31:08.079Z,724
2017-04-03T06:31:53.632Z,724
2017-04-03T06:32:34.326Z,732
2017-04-03T06:33:15.992Z,740
2017-04-03T06:33:56.586Z,756
2017-04-03T06:34:38.211Z,780
2017-04-03T06:35:18.881Z,812
2017-04-03T06:35:59.528Z,844
2017-04-03T06:36:40.077Z,856
2017-04-03T06:37:20.690Z,864
2017-04-03T06:38:01.285Z,872
2017-04-03T06:38:42.954Z,900
2017-04-03T06:39:23.507Z,932
2017-04-03T06:40:04.151Z,976
2017-04-03T06:40:45.758Z,1016
2017-04-03T06:41:26.359Z,1048
2017-04-03T06:42:06.895Z,1076
2017-04-03T06:42:48.286Z,1104
2017-04-03T06:43:30.725Z,1124
2017-04-03T06:44:11.355Z,1124
2017-04-03T06:44:52.027Z,1120
2017-04-03T06:45:33.435Z,1108
2017-04-03T06:46:14.031Z,1100
2017-04-03T06:46:54.698Z,1084
2017-04-03T06:47:35.291Z,1068
2017-04-03T06:48:15.860Z,1052
2017-04-03T06:48:56.443Z,1032
2017-04-03T06:49:39.033Z,1020
2017-04-03T06:50:19.593Z,1020
2017-04-03T06:51:00.187Z,1028
2017-04-03T06:51:40.768Z,1028
2017-04-03T06:52:22.337Z,1032
2017-04-03T06:53:02.911Z,1036
2017-04-03T06:53:45.484Z,1044
2017-04-03T06:54:26.052Z,1060
2017-04-03T06:55:07.625Z,1064
2017-04-03T06:55:48.291Z,1072
2017-04-03T06:56:30.862Z,1080
2017-04-03T06:57:11.956Z,1080
2017-04-03T06:57:52.544Z,1092
2017-04-03T06:58:33.140Z,1104
2017-04-03T06:59:13.771Z,1112
2017-04-03T06:59:54.320Z,1120
2017-04-03T07:00:34.918Z,1104
2017-04-03T07:01:15.484Z,1108
2017-04-03T07:02:02.712Z,1096
2017-04-03T07:02:48.192Z,1092
2017-04-03T07:03:28.784Z,1096
2017-04-03T07:04:09.415Z,1100
2017-04-03T07:04:50.001Z,1104
2017-04-03T07:05:35.192Z,1108
2017-04-03T07:06:15.765Z,1112
2017-04-03T07:06:58.338Z,1140
2017-04-03T07:07:38.914Z,1160
2017-04-03T07:08:20.479Z,1196
2017-04-03T07:09:01.041Z,1224
2017-04-03T07:09:42.758Z,1252
2017-04-03T07:10:24.340Z,1264
2017-04-03T07:11:04.893Z,1256
2017-04-03T07:11:45.507Z,1240
2017-04-03T07:12:26.090Z,1232
2017-04-03T07:13:06.643Z,1228
2017-04-03T07:13:53.062Z,1236
2017-04-03T07:14:34.633Z,1248
2017-04-03T07:15:15.207Z,1268
2017-04-03T07:15:55.775Z,1288
2017-04-03T07:16:36.353Z,1304
2017-04-03T07:17:16.925Z,1320
2017-04-03T07:17:57.490Z,1348
2017-04-03T07:18:38.051Z,1356
2017-04-03T07:19:20.625Z,1368
2017-04-03T07:20:01.197Z,1384
2017-04-03T07:20:43.339Z,1400
2017-04-03T07:21:23.926Z,1420
2017-04-03T07:22:04.480Z,1444
2017-04-03T07:22:45.065Z,1476
2017-04-03T07:23:25.645Z,1508
2017-04-03T07:24:06.250Z,1544
2017-04-03T07:24:46.819Z,1580
2017-04-03T07:25:27.386Z,1604
2017-04-03T07:26:07.992Z,1612
2017-04-03T07:26:48.560Z,1644
2017-04-03T07:27:29.124Z,1676
2017-04-03T07:28:09.698Z,1700
2017-04-03T07:28:50.266Z,1712
2017-04-03T07:29:30.819Z,1724
2017-04-03T07:30:11.392Z,1728
2017-04-03T07:30:51.979Z,1760
2017-04-03T07:31:32.655Z,1756
2017-04-03T07:32:13.205Z,1784
2017-04-03T07:32:54.769Z,1824
2017-04-03T07:33:35.349Z,1868
2017-04-03T07:34:17.928Z,1932
2017-04-03T07:35:00.494Z,1992
2017-04-03T07:35:41.085Z,2040
2017-04-03T07:36:21.647Z,2084
2017-04-03T07:37:02.232Z,2104
2017-04-03T07:37:42.810Z,2140
2017-04-03T07:38:23.381Z,2152
2017-04-03T07:39:04.947Z,2192
2017-04-03T07:39:45.629Z,2212
2017-04-03T07:40:26.207Z,2204
2017-04-03T07:41:06.783Z,2196
2017-04-03T07:41:47.336Z,2176
2017-04-03T07:42:27.914Z,2156
2017-04-03T07:43:08.478Z,2124
2017-04-03T07:43:49.941Z,2108
2017-04-03T07:44:30.507Z,2108
2017-04-03T07:45:11.166Z,2120
2017-04-03T07:45:51.816Z,2124
2017-04-03T07:46:32.372Z,2136
2017-04-03T07:47:12.998Z,2152
2017-04-03T07:47:53.664Z,2180
2017-04-03T07:48:34.310Z,2208
2017-04-03T07:49:19.778Z,2228
2017-04-03T07:50:01.459Z,2244
2017-04-03T07:50:42.105Z,2260
2017-04-03T07:51:22.771Z,2284
2017-04-03T07:52:03.418Z,2312
2017-04-03T07:52:46.007Z,2312
2017-04-03T07:53:26.591Z,2328
2017-04-03T07:54:08.352Z,2296
2017-04-03T07:54:48.910Z,2272
2017-04-03T07:55:31.556Z,2248
2017-04-03T07:56:12.134Z,2224
2017-04-03T07:56:52.791Z,2192
2017-04-03T07:57:33.393Z,2180
2017-04-03T07:58:14.076Z,2180
2017-04-03T07:58:54.705Z,2184
2017-04-03T07:59:36.417Z,2196
2017-04-03T08:00:17.038Z,2204
2017-04-03T08:00:57.700Z,2212
2017-04-03T08:01:38.352Z,2224
2017-04-03T08:02:19.685Z,2240
2017-04-03T08:03:00.275Z,2264
2017-04-03T08:03:40.994Z,2292
2017-04-03T08:04:21.539Z,2320
2017-04-03T08:05:02.171Z,2364
2017-04-03T08:05:47.732Z,2424
2017-04-03T08:06:28.286Z,2468
2017-04-03T08:07:08.977Z,2488
2017-04-03T08:07:54.297Z,2488
2017-04-03T08:08:34.891Z,2472
2017-04-03T08:09:15.504Z,2452
2017-04-03T08:09:56.165Z,2432
2017-04-03T08:10:36.811Z,2432
2017-04-03T08:11:17.463Z,2452
2017-04-03T08:11:59.171Z,2460
2017-04-03T08:12:39.813Z,2464
2017-04-03T08:13:20.463Z,2432
2017-04-03T08:14:01.103Z,2392
2017-04-03T08:14:41.754Z,2348
2017-04-03T08:15:22.407Z,2340
2017-04-03T08:16:03.062Z,2332
2017-04-03T08:16:43.739Z,2300
2017-04-03T08:17:24.366Z,2296
2017-04-03T08:18:06.043Z,2284
2017-04-03T08:18:48.644Z,2288
2017-04-03T08:19:29.243Z,2244
2017-04-03T08:20:09.857Z,2232
2017-04-03T08:20:51.539Z,2232
2017-04-03T08:21:32.104Z,2220
2017-04-03T08:22:12.786Z,2208
2017-04-03T08:22:53.486Z,2184
2017-04-03T08:23:35.161Z,2192
2017-04-03T08:24:15.817Z,2156
2017-04-03T08:24:56.469Z,2144
2017-04-03T08:25:37.121Z,2132
2017-04-03T08:26:17.769Z,2120
2017-04-03T08:26:58.335Z,2152
2017-04-03T08:27:38.955Z,2172
2017-04-03T08:28:19.559Z,2212
2017-04-03T08:29:00.185Z,2236
2017-04-03T08:29:40.838Z,2256
2017-04-03T08:30:21.517Z,2264
2017-04-03T08:31:03.069Z,2276
2017-04-03T08:31:45.667Z,2288
2017-04-03T08:32:26.259Z,2296
2017-04-03T08:33:06.868Z,2312
2017-04-03T08:33:47.523Z,2332
2017-04-03T08:34:28.155Z,2340
2017-04-03T08:35:08.881Z,2336
2017-04-03T08:35:50.550Z,2352
2017-04-03T08:36:32.297Z,2368
2017-04-03T08:37:12.974Z,2384
2017-04-03T08:37:54.661Z,2388
2017-04-03T08:38:35.269Z,2412
2017-04-03T08:39:15.826Z,2412
2017-04-03T08:39:56.407Z,2432
2017-04-03T08:40:37.005Z,2472
2017-04-03T08:41:17.797Z,2536
2017-04-03T08:41:58.367Z,2588
2017-04-03T08:42:39.050Z,2652
2017-04-03T08:43:19.720Z,2780
2017-04-03T08:44:07.071Z,2756
2017-04-03T08:44:47.701Z,2740
2017-04-03T08:45:28.304Z,2740
2017-04-03T08:46:08.913Z,2728
2017-04-03T08:46:49.517Z,2728
2017-04-03T08:47:30.071Z,2744
2017-04-03T08:48:11.694Z,2780
2017-04-03T08:48:52.249Z,2832
2017-04-03T08:49:32.851Z,2880
2017-04-03T08:50:13.400Z,2944
2017-04-03T08:50:54.008Z,3024
2017-04-03T08:51:34.589Z,3084
2017-04-03T08:52:15.300Z,3176
2017-04-03T08:52:56.123Z,3260
2017-04-03T08:53:36.731Z,3320
2017-04-03T08:54:17.406Z,3348
2017-04-03T08:54:58.073Z,3432
2017-04-03T08:55:40.720Z,3396
2017-04-03T08:56:21.287Z,3384
2017-04-03T08:57:07.478Z,3372
2017-04-03T08:57:48.088Z,3384
2017-04-03T08:58:33.225Z,3424
2017-04-03T08:59:13.831Z,3436
2017-04-03T08:59:54.399Z,3496
2017-04-03T09:00:34.988Z,3552
2017-04-03T09:01:15.565Z,3608
2017-04-03T09:01:56.109Z,3736
2017-04-03T09:02:36.679Z,3824
2017-04-03T09:03:17.232Z,3908
2017-04-03T09:03:58.805Z,3996
2017-04-03T09:04:39.399Z,4080
2017-04-03T09:05:19.979Z,4164
2017-04-03T09:06:00.573Z,4252
2017-04-03T09:06:41.139Z,4344
2017-04-03T09:07:26.287Z,4436
2017-04-03T09:08:06.974Z,4520
2017-04-03T09:08:48.614Z,4604
2017-04-03T09:09:34.137Z,4644
2017-04-03T09:10:14.853Z,4784
2017-04-03T09:11:01.118Z,4872
2017-04-03T09:11:42.721Z,4976
2017-04-03T09:12:23.321Z,5088
2017-04-03T09:13:09.610Z,5140
2017-04-03T09:13:51.197Z,5208
2017-04-03T09:14:32.820Z,5264
2017-04-03T09:15:13.388Z,5284
2017-04-03T09:15:55.970Z,5304
2017-04-03T09:16:36.563Z,5344
2017-04-03T09:17:17.190Z,5388
2017-04-03T09:17:57.747Z,5412
2017-04-03T09:18:38.367Z,5396
2017-04-03T09:19:18.931Z,5388
2017-04-03T09:20:00.518Z,5424
2017-04-03T09:20:41.142Z,5480
2017-04-03T09:21:21.704Z,5524
2017-04-03T09:22:02.348Z,5560
2017-04-03T09:22:42.899Z,5568
2017-04-03T09:23:23.504Z,5548
2017-04-03T09:24:04.078Z,5468
2017-04-03T09:24:44.675Z,5516
2017-04-03T09:25:25.260Z,5472
2017-04-03T09:26:05.858Z,5436
2017-04-03T09:26:46.419Z,5448
2017-04-03T09:27:27.035Z,5484
2017-04-03T09:28:07.959Z,5544
2017-04-03T09:28:49.052Z,5556
2017-04-03T09:29:29.775Z,5576
2017-04-03T09:30:10.347Z,5612
2017-04-03T09:30:50.896Z,5652
2017-04-03T09:31:31.556Z,5672
2017-04-03T09:32:12.142Z,5660
2017-04-03T09:32:53.699Z,5696
2017-04-03T09:33:34.291Z,5740
2017-04-03T09:34:14.851Z,5788
2017-04-03T09:35:02.069Z,5852
2017-04-03T09:35:43.602Z,5908
2017-04-03T09:36:24.375Z,5948
2017-04-03T09:37:05.049Z,5944
2017-04-03T09:37:45.707Z,6028
2017-04-03T09:38:26.477Z,6080
2017-04-03T09:39:07.046Z,6104
2017-04-03T09:39:47.625Z,6020
2017-04-03T09:40:29.188Z,5944
2017-04-03T09:41:09.748Z,5884
2017-04-03T09:41:50.339Z,5844
2017-04-03T09:42:31.164Z,5816
2017-04-03T09:43:11.817Z,5768
2017-04-03T09:43:53.513Z,5808
2017-04-03T09:44:34.226Z,5816
2017-04-03T09:45:14.959Z,5840
2017-04-03T09:45:55.570Z,5872
2017-04-03T09:46:37.263Z,5900
2017-04-03T09:47:18.006Z,6020
2017-04-03T09:47:58.677Z,5968